Time;durP1;ratioP1;P1;durP2;ratioP2;P2;SDS_P1;SDS_P2;PMS_P1;PMS_P2;Temp;Humidity;BMP_temperature;BMP_pressure;BME280_temperature;BME280_humidity;BME280_pressure;Samples;Min_cycle;Max_cycle;Signal;HPM_P1;HPM_P2
2021/05/21 00:00:46;;;;;;;7.57;6.10;;;12.00;99.90;;;;;;5092827;28;20264;-72
2021/05/21 00:03:12;;;;;;;7.07;6.03;;;12.00;99.90;;;;;;5093516;28;20203;-71
2021/05/21 00:05:39;;;;;;;8.37;6.50;;;12.00;99.90;;;;;;5100578;28;20204;-71
2021/05/21 00:08:09;;;;;;;6.50;5.83;;;12.00;99.90;;;;;;5099568;28;20210;-73
2021/05/21 00:10:36;;;;;;;7.30;6.47;;;12.00;99.90;;;;;;5091898;28;20219;-72
2021/05/21 00:13:02;;;;;;;6.80;6.03;;;12.00;99.90;;;;;;5106382;28;20314;-72
2021/05/21 00:15:29;;;;;;;7.70;6.87;;;11.90;99.90;;;;;;5103447;28;20208;-71
2021/05/21 00:17:55;;;;;;;8.57;6.63;;;11.90;99.90;;;;;;5093803;28;20211;-71
2021/05/21 00:20:22;;;;;;;6.90;6.20;;;11.90;99.90;;;;;;5090588;28;20248;-71
2021/05/21 00:22:48;;;;;;;6.87;6.17;;;11.90;99.90;;;;;;5099325;28;20204;-72
2021/05/21 00:25:15;;;;;;;8.97;6.47;;;11.90;99.90;;;;;;5099555;28;20257;-72
2021/05/21 00:27:42;;;;;;;7.63;6.60;;;11.90;99.90;;;;;;5090119;28;20197;-71
2021/05/21 00:30:09;;;;;;;8.23;6.90;;;11.90;99.90;;;;;;5090167;28;20258;-72
2021/05/21 00:32:35;;;;;;;8.87;6.07;;;11.80;99.90;;;;;;5091770;28;20227;-72
2021/05/21 00:35:01;;;;;;;8.97;6.70;;;11.80;99.90;;;;;;5099885;28;20261;-71
2021/05/21 00:37:28;;;;;;;8.00;6.40;;;11.80;99.90;;;;;;5108117;28;20206;-71
2021/05/21 00:39:54;;;;;;;7.90;6.07;;;11.80;99.90;;;;;;5098184;28;20577;-71
2021/05/21 00:42:22;;;;;;;8.03;5.87;;;11.80;99.90;;;;;;5096297;28;20694;-71
2021/05/21 00:44:54;;;;;;;8.33;6.20;;;11.80;99.90;;;;;;5109339;28;20318;-71
2021/05/21 00:47:20;;;;;;;7.73;6.43;;;11.80;99.90;;;;;;5097601;28;20212;-72
2021/05/21 00:49:47;;;;;;;7.03;6.33;;;11.80;99.90;;;;;;5106930;28;20244;-72
2021/05/21 00:52:16;;;;;;;7.37;6.03;;;11.80;99.90;;;;;;5095223;28;20212;-72
2021/05/21 00:54:43;;;;;;;9.57;6.20;;;11.80;99.90;;;;;;5090771;28;20206;-72
2021/05/21 00:57:09;;;;;;;7.90;6.53;;;11.80;99.90;;;;;;5093654;28;20209;-72
2021/05/21 00:59:36;;;;;;;6.77;5.60;;;11.80;99.90;;;;;;5099740;28;20658;-71
2021/05/21 01:02:03;;;;;;;6.77;5.83;;;11.80;99.90;;;;;;5103473;28;20196;-70
2021/05/21 01:04:30;;;;;;;6.37;5.77;;;11.90;99.90;;;;;;5096282;28;20204;-71
2021/05/21 01:06:56;;;;;;;7.03;5.83;;;11.90;99.90;;;;;;5099513;28;20205;-70
2021/05/21 01:09:22;;;;;;;7.30;6.00;;;11.90;99.90;;;;;;5098430;28;20640;-71
2021/05/21 01:11:49;;;;;;;7.90;5.90;;;12.00;99.90;;;;;;5102633;28;20291;-71
2021/05/21 01:14:15;;;;;;;5.97;5.37;;;12.00;99.90;;;;;;5104513;28;20691;-70
2021/05/21 01:16:42;;;;;;;9.13;6.33;;;12.00;99.90;;;;;;5104620;28;20649;-70
2021/05/21 01:19:08;;;;;;;6.90;6.20;;;12.00;99.90;;;;;;5092699;28;20574;-72
2021/05/21 01:21:36;;;;;;;7.10;6.40;;;12.00;99.90;;;;;;5105795;28;20543;-71
2021/05/21 01:24:03;;;;;;;7.80;6.10;;;12.00;99.90;;;;;;5105720;28;20212;-71
2021/05/21 01:26:30;;;;;;;6.53;5.63;;;12.00;99.90;;;;;;5099864;28;20204;-71
2021/05/21 01:28:56;;;;;;;7.03;6.17;;;12.00;99.90;;;;;;5094453;28;20205;-70
2021/05/21 01:31:24;;;;;;;8.50;6.60;;;12.00;99.90;;;;;;5106624;28;20672;-70
2021/05/21 01:33:50;;;;;;;8.27;6.33;;;12.00;99.90;;;;;;5113247;27;20196;-71
2021/05/21 01:36:17;;;;;;;8.67;6.23;;;12.00;99.90;;;;;;5109326;28;20208;-71
2021/05/21 01:38:59;;;;;;;7.53;6.77;;;12.00;99.90;;;;;;5095043;28;20216;-71
2021/05/21 01:41:26;;;;;;;6.87;6.17;;;12.00;99.90;;;;;;5096012;28;20674;-71
2021/05/21 01:43:55;;;;;;;7.33;6.30;;;11.90;99.90;;;;;;5109151;28;20718;-71
2021/05/21 01:46:21;;;;;;;7.63;6.50;;;11.90;99.90;;;;;;5113631;28;20207;-71
2021/05/21 01:48:47;;;;;;;7.10;5.90;;;11.90;99.90;;;;;;5102319;28;20201;-70
2021/05/21 01:51:14;;;;;;;8.43;7.10;;;11.80;99.90;;;;;;5108873;28;20240;-71
2021/05/21 01:53:41;;;;;;;7.53;6.73;;;11.80;99.90;;;;;;5107952;28;20196;-71
2021/05/21 01:56:09;;;;;;;9.33;6.50;;;11.90;99.90;;;;;;5104760;28;20211;-71
2021/05/21 01:58:35;;;;;;;8.47;6.60;;;11.80;99.90;;;;;;5088154;28;20359;-70
2021/05/21 02:01:02;;;;;;;7.00;6.30;;;11.80;99.90;;;;;;5107108;28;20223;-71
2021/05/21 02:03:29;;;;;;;7.13;6.20;;;11.80;99.90;;;;;;5104641;28;20510;-70
2021/05/21 02:05:55;;;;;;;7.17;6.00;;;11.80;99.90;;;;;;5099085;28;20544;-71
2021/05/21 02:08:24;;;;;;;7.10;6.40;;;11.80;99.90;;;;;;5099969;28;20295;-70
2021/05/21 02:10:50;;;;;;;9.80;7.60;;;11.80;99.90;;;;;;5093544;28;20209;-71
2021/05/21 02:13:17;;;;;;;6.83;6.07;;;11.90;99.90;;;;;;5098512;28;20228;-71
2021/05/21 02:15:44;;;;;;;7.83;6.77;;;11.80;99.90;;;;;;5100437;28;20245;-71
2021/05/21 02:18:10;;;;;;;9.30;7.23;;;11.70;99.90;;;;;;5100959;28;20203;-71
2021/05/21 02:20:37;;;;;;;7.60;6.80;;;11.70;99.90;;;;;;5093529;28;20244;-71
2021/05/21 02:23:04;;;;;;;11.70;7.33;;;11.60;99.90;;;;;;5102969;28;20287;-71
2021/05/21 02:25:30;;;;;;;8.33;6.93;;;11.60;99.90;;;;;;5101591;28;20757;-70
2021/05/21 02:27:56;;;;;;;8.40;7.43;;;11.60;99.90;;;;;;5109553;28;20563;-70
2021/05/21 02:30:25;;;;;;;7.83;6.67;;;11.60;99.90;;;;;;5096279;28;20204;-71
2021/05/21 02:32:51;;;;;;;7.60;6.80;;;11.50;99.90;;;;;;5111638;28;20224;-70
2021/05/21 02:35:18;;;;;;;7.70;6.90;;;11.50;99.90;;;;;;5113075;28;20201;-70
2021/05/21 02:37:44;;;;;;;8.30;7.47;;;11.50;99.90;;;;;;5097551;28;20204;-71
2021/05/21 02:40:11;;;;;;;8.13;6.80;;;11.40;99.90;;;;;;5095816;28;20201;-70
2021/05/21 02:42:38;;;;;;;8.53;7.40;;;11.30;99.90;;;;;;5096065;28;20582;-71
2021/05/21 02:45:06;;;;;;;10.70;7.57;;;11.30;99.90;;;;;;5102807;28;20226;-71
2021/05/21 02:47:34;;;;;;;8.13;7.33;;;11.40;99.90;;;;;;5108112;28;20559;-70
2021/05/21 02:50:00;;;;;;;10.10;7.73;;;11.30;99.90;;;;;;5107649;28;20250;-71
2021/05/21 02:52:27;;;;;;;10.33;7.20;;;11.30;99.90;;;;;;5110072;28;20676;-69
2021/05/21 02:54:54;;;;;;;8.47;7.43;;;11.40;99.90;;;;;;5108786;28;20246;-69
2021/05/21 02:57:23;;;;;;;9.60;7.83;;;11.30;99.90;;;;;;5104220;28;20275;-71
2021/05/21 02:59:49;;;;;;;8.77;6.63;;;11.30;99.90;;;;;;5094201;28;20220;-70
2021/05/21 03:02:16;;;;;;;10.00;7.23;;;11.30;99.90;;;;;;5093673;28;20201;-71
2021/05/21 03:04:43;;;;;;;8.47;6.57;;;11.30;99.90;;;;;;5092624;28;20204;-71
2021/05/21 03:07:09;;;;;;;6.83;6.10;;;11.40;99.90;;;;;;5091865;28;20875;-71
2021/05/21 03:09:36;;;;;;;7.27;6.57;;;11.40;99.90;;;;;;5101987;28;20203;-71
2021/05/21 03:12:03;;;;;;;9.90;7.40;;;11.40;99.90;;;;;;5097317;28;20266;-70
2021/05/21 03:14:29;;;;;;;9.40;6.90;;;11.40;99.90;;;;;;5097832;28;20228;-72
2021/05/21 03:16:55;;;;;;;7.57;6.40;;;11.40;99.90;;;;;;5108785;28;20714;-71
2021/05/21 03:19:22;;;;;;;7.87;6.80;;;11.40;99.90;;;;;;5089310;28;20632;-71
2021/05/21 03:21:49;;;;;;;8.43;6.13;;;11.40;99.90;;;;;;5103719;28;20664;-70
2021/05/21 03:24:15;;;;;;;11.20;7.07;;;11.50;99.90;;;;;;5105466;28;20610;-71
2021/05/21 03:26:42;;;;;;;10.63;7.20;;;11.50;99.90;;;;;;5101398;28;20204;-69
2021/05/21 03:29:08;;;;;;;7.67;6.67;;;11.40;99.90;;;;;;5091877;28;20291;-69
2021/05/21 03:31:35;;;;;;;7.87;7.00;;;11.40;99.90;;;;;;5103681;28;20204;-69
2021/05/21 03:34:01;;;;;;;7.57;6.60;;;11.40;99.90;;;;;;5101830;28;20207;-69
2021/05/21 03:36:27;;;;;;;10.40;6.73;;;11.50;99.90;;;;;;5092492;28;20232;-69
2021/05/21 03:38:55;;;;;;;9.03;6.87;;;11.50;99.90;;;;;;5094326;28;20227;-69
2021/05/21 03:41:21;;;;;;;8.10;6.77;;;11.60;99.90;;;;;;5093262;28;20291;-69
2021/05/21 03:43:47;;;;;;;8.30;6.80;;;11.60;99.90;;;;;;5107201;28;20204;-70
2021/05/21 03:46:14;;;;;;;9.43;7.53;;;11.70;99.90;;;;;;5103782;28;20206;-69
2021/05/21 03:48:40;;;;;;;10.57;7.70;;;11.70;99.90;;;;;;5104761;28;20208;-70
2021/05/21 03:51:07;;;;;;;13.87;7.40;;;11.70;99.90;;;;;;5109600;28;20355;-72
2021/05/21 03:53:33;;;;;;;8.43;7.47;;;11.70;99.90;;;;;;5109309;28;20330;-72
2021/05/21 03:56:00;;;;;;;9.67;8.13;;;11.70;99.90;;;;;;5092202;28;20295;-70
2021/05/21 03:58:27;;;;;;;11.00;8.10;;;11.70;99.90;;;;;;5100781;28;20196;-71
2021/05/21 04:00:55;;;;;;;10.27;7.67;;;11.70;99.90;;;;;;5095430;28;20222;-70
2021/05/21 04:03:21;;;;;;;10.43;8.17;;;11.80;99.90;;;;;;5097807;28;20236;-71
2021/05/21 04:05:47;;;;;;;9.30;7.50;;;11.80;99.90;;;;;;5101838;28;20334;-70
2021/05/21 04:08:14;;;;;;;8.23;7.23;;;11.90;99.90;;;;;;5102894;27;20195;-72
2021/05/21 04:10:40;;;;;;;9.30;8.20;;;12.00;99.90;;;;;;5092494;28;20215;-70
2021/05/21 04:13:08;;;;;;;10.70;7.83;;;12.00;99.90;;;;;;5102095;28;20222;-72
2021/05/21 04:15:34;;;;;;;9.47;7.50;;;12.00;99.90;;;;;;5102911;28;20220;-71
2021/05/21 04:18:01;;;;;;;10.50;8.23;;;12.10;99.90;;;;;;5097112;28;20247;-71
2021/05/21 04:20:27;;;;;;;14.47;8.37;;;12.00;99.90;;;;;;5092356;28;20690;-72
2021/05/21 04:22:54;;;;;;;11.30;7.77;;;12.00;99.90;;;;;;5103113;28;20641;-71
2021/05/21 04:25:20;;;;;;;8.93;7.90;;;12.10;99.90;;;;;;5092290;28;20300;-70
2021/05/21 04:27:47;;;;;;;12.20;7.97;;;12.10;99.90;;;;;;5091711;28;20299;-70
2021/05/21 04:30:15;;;;;;;10.07;7.53;;;12.20;99.90;;;;;;5105756;28;20314;-70
2021/05/21 04:32:42;;;;;;;9.40;7.63;;;12.30;99.90;;;;;;5098786;28;20230;-69
2021/05/21 04:35:09;;;;;;;10.03;7.80;;;12.30;99.90;;;;;;5094946;28;20212;-71
2021/05/21 04:37:35;;;;;;;12.73;8.00;;;12.30;99.90;;;;;;5102565;28;20213;-70
2021/05/21 04:40:02;;;;;;;8.77;7.87;;;12.40;99.90;;;;;;5090970;28;20292;-70
2021/05/21 04:42:29;;;;;;;11.40;8.60;;;12.50;99.90;;;;;;5095997;28;20200;-71
2021/05/21 04:44:55;;;;;;;9.40;7.73;;;12.60;99.90;;;;;;5099200;28;20288;-71
2021/05/21 04:47:22;;;;;;;9.67;7.57;;;12.60;99.90;;;;;;5101821;28;20298;-70
2021/05/21 04:49:49;;;;;;;9.20;7.73;;;12.70;99.90;;;;;;5091339;28;20319;-71
2021/05/21 04:52:15;;;;;;;9.23;7.83;;;12.70;99.90;;;;;;5102794;28;20267;-72
2021/05/21 04:54:41;;;;;;;13.77;9.50;;;12.70;99.90;;;;;;5105296;28;20290;-70
2021/05/21 04:57:08;;;;;;;10.50;7.90;;;12.80;99.90;;;;;;5102229;28;20218;-70
2021/05/21 04:59:34;;;;;;;8.10;7.07;;;12.80;99.90;;;;;;5111030;28;20253;-71
2021/05/21 05:02:02;;;;;;;12.20;7.70;;;12.80;99.90;;;;;;5097852;28;20203;-71
2021/05/21 05:04:29;;;;;;;10.47;7.67;;;12.90;99.90;;;;;;5113871;28;20224;-72
2021/05/21 05:06:55;;;;;;;8.80;7.63;;;13.00;99.90;;;;;;5100627;28;20561;-70
2021/05/21 05:09:22;;;;;;;9.53;7.83;;;13.10;99.90;;;;;;5098736;28;20283;-70
2021/05/21 05:11:48;;;;;;;9.77;7.67;;;13.20;99.90;;;;;;5103669;28;20236;-70
2021/05/21 05:14:14;;;;;;;10.50;7.20;;;13.20;99.90;;;;;;5092077;28;20727;-70
2021/05/21 05:16:42;;;;;;;8.87;6.73;;;13.20;99.90;;;;;;5103206;28;20204;-70
2021/05/21 05:19:09;;;;;;;10.83;7.80;;;13.30;99.90;;;;;;5094727;28;20205;-70
2021/05/21 05:21:40;;;;;;;8.77;6.63;;;13.20;99.90;;;;;;5097200;28;20296;-69
2021/05/21 05:24:11;;;;;;;8.67;6.93;;;13.20;99.90;;;;;;5092284;28;20200;-70
2021/05/21 05:26:38;;;;;;;8.50;6.70;;;13.20;99.90;;;;;;5095105;28;20232;-70
2021/05/21 05:29:04;;;;;;;9.00;6.63;;;13.20;99.90;;;;;;5096886;28;20634;-69
2021/05/21 05:31:32;;;;;;;8.63;6.50;;;13.20;99.90;;;;;;5096174;28;20277;-69
2021/05/21 05:33:58;;;;;;;9.53;7.70;;;13.30;99.90;;;;;;5097244;28;20337;-71
2021/05/21 05:36:26;;;;;;;8.03;6.63;;;13.40;99.90;;;;;;5099869;28;20646;-69
2021/05/21 05:38:53;;;;;;;7.73;6.70;;;13.40;99.90;;;;;;5096210;27;20258;-69
2021/05/21 05:41:19;;;;;;;11.73;7.50;;;13.40;99.90;;;;;;5092065;28;20239;-69
2021/05/21 05:43:46;;;;;;;10.07;7.23;;;13.50;99.90;;;;;;5100465;28;20828;-69
2021/05/21 05:46:12;;;;;;;8.70;7.07;;;13.60;99.90;;;;;;5114276;28;20226;-70
2021/05/21 05:48:39;;;;;;;8.30;6.90;;;13.70;99.90;;;;;;5094066;28;20233;-69
2021/05/21 05:51:05;;;;;;;7.27;6.43;;;13.80;99.90;;;;;;5093755;28;20240;-69
2021/05/21 05:53:34;;;;;;;10.27;6.90;;;13.80;99.90;;;;;;5094182;28;20217;-70
2021/05/21 05:56:01;;;;;;;7.47;6.30;;;13.80;99.90;;;;;;5101980;28;20612;-64
2021/05/21 05:58:28;;;;;;;8.57;6.93;;;13.90;99.90;;;;;;5094480;28;20443;-63
2021/05/21 06:00:54;;;;;;;7.73;6.53;;;13.90;99.90;;;;;;5094127;28;20215;-62
2021/05/21 06:03:21;;;;;;;8.57;6.00;;;14.10;99.90;;;;;;5094574;28;20257;-65
2021/05/21 06:05:47;;;;;;;8.23;6.37;;;14.20;99.90;;;;;;5097356;28;20208;-66
2021/05/21 06:08:13;;;;;;;10.27;6.13;;;14.30;99.90;;;;;;5105806;28;20676;-65
2021/05/21 06:10:40;;;;;;;8.57;6.20;;;14.40;99.90;;;;;;5098082;28;20215;-66
2021/05/21 06:13:08;;;;;;;6.70;5.70;;;14.60;99.90;;;;;;5103361;28;20293;-67
2021/05/21 06:15:36;;;;;;;11.30;6.30;;;14.70;99.90;;;;;;5099962;28;20269;-66
2021/05/21 06:18:03;;;;;;;9.90;6.30;;;14.90;99.90;;;;;;5109199;28;20204;-66
2021/05/21 06:20:31;;;;;;;9.07;5.97;;;15.00;99.90;;;;;;5097576;28;20208;-65
2021/05/21 06:22:58;;;;;;;10.63;5.77;;;15.20;99.90;;;;;;5103215;28;20208;-66
2021/05/21 06:25:38;;;;;;;8.37;5.03;;;15.20;99.90;;;;;;5097293;28;20213;-65
2021/05/21 06:28:04;;;;;;;9.17;5.40;;;15.30;99.90;;;;;;5099397;28;20204;-65
2021/05/21 06:30:32;;;;;;;9.93;5.43;;;15.50;99.90;;;;;;5098126;28;20203;-65
2021/05/21 06:32:58;;;;;;;9.33;6.30;;;15.60;99.90;;;;;;5098720;28;20246;-65
2021/05/21 06:35:26;;;;;;;8.23;5.10;;;15.70;99.90;;;;;;5102656;28;20622;-68
2021/05/21 06:37:52;;;;;;;8.30;5.53;;;15.70;99.90;;;;;;5099160;28;20204;-65
2021/05/21 06:40:19;;;;;;;10.83;5.20;;;15.80;99.90;;;;;;5102753;28;20634;-64
2021/05/21 06:42:46;;;;;;;9.57;5.47;;;15.90;99.90;;;;;;5100927;28;20250;-64
2021/05/21 06:45:13;;;;;;;8.33;5.20;;;15.90;99.90;;;;;;5094584;28;20287;-65
2021/05/21 06:47:40;;;;;;;8.63;4.30;;;15.90;99.90;;;;;;5105398;28;20268;-65
2021/05/21 06:50:08;;;;;;;6.63;4.03;;;15.90;99.70;;;;;;5097070;28;20236;-65
2021/05/21 06:52:35;;;;;;;8.93;3.97;;;16.00;99.20;;;;;;5109295;28;20208;-66
2021/05/21 06:55:01;;;;;;;10.43;4.83;;;16.00;98.50;;;;;;5101873;28;20292;-67
2021/05/21 06:57:27;;;;;;;6.60;3.83;;;16.10;98.10;;;;;;5095694;28;20339;-65
2021/05/21 06:59:54;;;;;;;7.87;3.80;;;16.10;97.40;;;;;;5095661;28;20231;-65
2021/05/21 07:02:20;;;;;;;7.40;3.17;;;16.10;96.60;;;;;;5107053;28;20203;-64
2021/05/21 07:04:47;;;;;;;6.17;3.00;;;16.00;95.60;;;;;;5100055;28;20341;-67
2021/05/21 07:07:14;;;;;;;4.77;3.47;;;16.00;95.20;;;;;;5093103;28;20210;-69
2021/05/21 07:09:40;;;;;;;5.97;3.20;;;16.00;95.00;;;;;;5087062;28;20619;-65
2021/05/21 07:12:07;;;;;;;5.70;3.20;;;16.00;95.00;;;;;;5090997;28;20316;-65
2021/05/21 07:14:33;;;;;;;4.97;2.87;;;16.10;95.00;;;;;;5085422;28;20229;-65
2021/05/21 07:16:59;;;;;;;4.60;3.03;;;16.20;94.70;;;;;;5093744;28;20273;-66
2021/05/21 07:19:26;;;;;;;5.10;2.97;;;16.30;94.20;;;;;;5092244;28;20666;-65
2021/05/21 07:21:53;;;;;;;5.53;4.00;;;16.50;93.90;;;;;;5093717;28;20645;-64
2021/05/21 07:24:19;;;;;;;5.73;2.90;;;16.70;93.50;;;;;;5092961;28;20209;-63
2021/05/21 07:26:46;;;;;;;4.63;2.10;;;16.80;92.90;;;;;;5093190;28;20239;-63
2021/05/21 07:29:12;;;;;;;7.37;2.90;;;16.80;91.80;;;;;;5092669;28;20235;-65
2021/05/21 07:31:38;;;;;;;4.53;1.90;;;16.90;90.80;;;;;;5087821;28;20282;-65
2021/05/21 07:34:05;;;;;;;5.33;2.07;;;17.10;89.20;;;;;;5092982;28;20319;-63
2021/05/21 07:36:34;;;;;;;3.07;1.83;;;17.30;87.10;;;;;;5093705;28;20205;-63
2021/05/21 07:39:01;;;;;;;2.33;1.73;;;17.40;84.40;;;;;;5091270;28;20209;-64
2021/05/21 07:41:28;;;;;;;5.17;1.90;;;17.60;82.00;;;;;;5087008;28;20555;-65
2021/05/21 07:43:55;;;;;;;3.57;2.67;;;17.70;78.40;;;;;;5093032;28;21019;-65
2021/05/21 07:46:23;;;;;;;4.43;1.77;;;17.80;75.80;;;;;;5082519;28;20563;-67
2021/05/21 07:48:50;;;;;;;1.67;1.50;;;18.00;73.60;;;;;;5101783;28;20212;-61
2021/05/21 07:51:16;;;;;;;2.03;1.57;;;18.20;71.90;;;;;;5097694;28;20285;-67
2021/05/21 07:53:43;;;;;;;5.33;1.60;;;18.30;69.00;;;;;;5097196;28;20231;-63
2021/05/21 07:56:10;;;;;;;3.80;1.43;;;18.30;66.10;;;;;;5098541;28;20660;-61
2021/05/21 07:58:37;;;;;;;2.20;1.43;;;18.30;63.40;;;;;;5097739;28;20215;-64
2021/05/21 08:01:04;;;;;;;2.43;1.80;;;18.30;62.40;;;;;;5092463;28;20204;-64
2021/05/21 08:03:30;;;;;;;2.17;1.27;;;18.30;61.60;;;;;;5093340;28;20283;-63
2021/05/21 08:05:59;;;;;;;1.90;0.97;;;18.30;60.50;;;;;;5094875;28;20299;-63
2021/05/21 08:08:26;;;;;;;3.50;1.23;;;18.30;59.50;;;;;;5089997;28;20244;-64
2021/05/21 08:10:53;;;;;;;1.73;0.90;;;18.30;58.30;;;;;;5101003;28;20208;-63
2021/05/21 08:13:21;;;;;;;1.47;1.20;;;18.20;57.80;;;;;;5098907;28;20239;-64
2021/05/21 08:15:48;;;;;;;1.67;1.17;;;18.30;57.50;;;;;;5102509;28;20213;-65
2021/05/21 08:18:14;;;;;;;2.97;1.30;;;18.50;57.80;;;;;;5093765;28;20244;-64
2021/05/21 08:20:42;;;;;;;1.77;1.00;;;18.70;57.70;;;;;;5098328;28;20633;-62
2021/05/21 08:23:10;;;;;;;1.40;1.20;;;18.90;57.00;;;;;;5101870;28;20206;-64
2021/05/21 08:25:37;;;;;;;3.17;1.10;;;19.00;55.50;;;;;;5103335;28;20218;-63
2021/05/21 08:28:04;;;;;;;0.98;0.90;;;19.20;55.10;;;;;;5099778;28;20212;-63
2021/05/21 08:30:31;;;;;;;2.58;1.50;;;19.10;54.80;;;;;;5097683;28;20211;-63
2021/05/21 08:32:58;;;;;;;1.83;1.30;;;19.10;54.80;;;;;;5092824;28;20224;-62
2021/05/21 08:35:25;;;;;;;1.50;1.30;;;19.10;54.80;;;;;;5096676;28;20618;-62
2021/05/21 08:37:51;;;;;;;3.03;1.40;;;19.30;54.50;;;;;;5099005;28;20273;-61
2021/05/21 08:40:25;;;;;;;1.35;1.17;;;19.40;54.20;;;;;;5105004;28;20629;-64
2021/05/21 08:42:57;;;;;;;1.90;1.17;;;19.50;53.30;;;;;;5104979;28;20198;-65
2021/05/21 08:45:24;;;;;;;1.40;1.10;;;19.60;52.90;;;;;;5105502;28;20257;-64
2021/05/21 08:47:52;;;;;;;1.90;1.40;;;19.70;52.90;;;;;;5101483;28;20282;-64
2021/05/21 08:50:19;;;;;;;3.05;1.30;;;19.80;52.90;;;;;;5104359;28;20224;-62
2021/05/21 08:52:47;;;;;;;2.28;1.80;;;19.90;53.00;;;;;;5099865;28;20684;-64
2021/05/21 08:55:14;;;;;;;6.72;1.52;;;19.90;51.90;;;;;;5099523;28;20662;-63
2021/05/21 08:57:40;;;;;;;6.05;1.30;;;19.80;50.90;;;;;;5106015;28;20212;-64
2021/05/21 09:00:08;;;;;;;2.33;1.42;;;19.70;50.00;;;;;;5101378;28;20613;-64
2021/05/21 09:02:34;;;;;;;1.50;1.10;;;19.60;49.40;;;;;;5106101;28;20986;-64
2021/05/21 09:05:03;;;;;;;1.50;0.85;;;19.50;49.40;;;;;;5101822;28;20614;-65
2021/05/21 09:07:31;;;;;;;1.67;0.80;;;19.30;49.30;;;;;;5101204;28;20669;-63
2021/05/21 09:10:05;;;;;;;2.92;1.50;;;19.20;49.40;;;;;;5104522;28;20305;-64
2021/05/21 09:12:38;;;;;;;3.57;2.40;;;19.00;49.80;;;;;;5104782;28;20684;-63
2021/05/21 09:15:10;;;;;;;2.10;1.20;;;18.90;50.50;;;;;;5101623;28;20269;-65
2021/05/21 09:17:37;;;;;;;2.67;1.10;;;18.80;51.20;;;;;;5099803;28;20287;-65
2021/05/21 09:20:05;;;;;;;1.13;1.00;;;18.80;51.60;;;;;;5102033;28;20204;-65
2021/05/21 09:22:31;;;;;;;2.00;1.27;;;19.00;51.80;;;;;;5097982;28;20223;-63
2021/05/21 09:24:58;;;;;;;2.67;1.27;;;19.10;52.00;;;;;;5102660;28;20280;-64
2021/05/21 09:27:25;;;;;;;2.38;0.82;;;19.30;52.00;;;;;;5104095;28;20585;-64
2021/05/21 09:29:53;;;;;;;2.45;1.00;;;19.60;51.30;;;;;;5111474;28;20235;-65
2021/05/21 09:32:26;;;;;;;1.37;0.90;;;19.70;50.10;;;;;;5103202;28;20260;-65
2021/05/21 09:35:11;;;;;;;1.83;1.17;;;19.70;49.60;;;;;;5105935;28;20199;-63
2021/05/21 09:37:43;;;;;;;1.05;1.05;;;19.60;49.60;;;;;;5105319;28;20204;-65
2021/05/21 09:40:13;;;;;;;2.72;1.10;;;19.50;49.70;;;;;;5103815;28;20203;-64
2021/05/21 09:42:51;;;;;;;2.00;1.80;;;19.40;50.20;;;;;;5110882;28;20207;-64
2021/05/21 09:45:24;;;;;;;1.77;1.23;;;19.50;51.10;;;;;;5102649;28;20210;-65
2021/05/21 09:47:53;;;;;;;2.63;1.20;;;19.80;51.00;;;;;;5098308;28;20636;-63
2021/05/21 09:50:30;;;;;;;4.25;1.40;;;20.00;50.60;;;;;;5101161;28;20717;-63
2021/05/21 09:53:01;;;;;;;1.17;0.90;;;20.30;50.60;;;;;;5105192;28;20212;-64
2021/05/21 09:55:36;;;;;;;1.65;1.13;;;20.70;49.50;;;;;;5105322;28;20249;-64
2021/05/21 09:58:03;;;;;;;1.00;0.90;;;21.10;48.90;;;;;;5104528;28;20259;-65
2021/05/21 10:00:29;;;;;;;0.80;0.80;;;21.40;47.10;;;;;;5096078;28;20213;-63
2021/05/21 10:02:56;;;;;;;4.07;2.10;;;21.50;46.30;;;;;;5110568;28;20196;-64
2021/05/21 10:05:24;;;;;;;4.03;1.33;;;21.40;46.00;;;;;;5105017;28;20567;-64
2021/05/21 10:07:52;;;;;;;0.80;0.80;;;21.40;46.70;;;;;;5101052;28;20217;-65
2021/05/21 10:10:21;;;;;;;1.25;0.70;;;21.60;46.10;;;;;;5107125;28;20237;-65
2021/05/21 10:12:48;;;;;;;2.33;0.80;;;21.80;45.30;;;;;;5108147;28;20270;-64
2021/05/21 10:15:15;;;;;;;0.80;0.80;;;22.00;44.90;;;;;;5108921;28;20783;-64
2021/05/21 10:17:44;;;;;;;1.23;0.88;;;22.20;44.70;;;;;;5102356;28;20227;-65
2021/05/21 10:20:14;;;;;;;2.20;1.05;;;22.50;44.50;;;;;;5108658;28;20211;-64
2021/05/21 10:22:42;;;;;;;1.00;0.90;;;22.70;43.70;;;;;;5095069;28;20212;-64
2021/05/21 10:25:15;;;;;;;2.17;1.10;;;22.90;43.80;;;;;;5096219;28;20262;-64
2021/05/21 10:27:46;;;;;;;2.65;1.38;;;22.90;44.10;;;;;;5100433;28;20196;-62
2021/05/21 10:30:15;;;;;;;2.95;0.82;;;23.00;43.90;;;;;;5095737;28;20664;-63
2021/05/21 10:32:41;;;;;;;2.35;0.95;;;23.00;43.90;;;;;;5100882;28;20228;-65
2021/05/21 10:35:19;;;;;;;2.30;1.10;;;23.10;43.80;;;;;;5093715;28;20298;-64
2021/05/21 10:37:48;;;;;;;1.40;0.95;;;22.90;43.60;;;;;;5097577;28;20832;-64
2021/05/21 10:40:22;;;;;;;3.47;1.38;;;22.80;43.70;;;;;;5111705;28;20676;-64
2021/05/21 10:42:50;;;;;;;2.28;1.05;;;22.60;43.50;;;;;;5103075;28;21398;-65
2021/05/21 10:45:19;;;;;;;2.05;1.75;;;22.40;43.20;;;;;;5102698;28;20208;-64
2021/05/21 10:47:46;;;;;;;1.30;1.20;;;22.20;44.10;;;;;;5105155;28;20253;-65
2021/05/21 10:50:16;;;;;;;2.13;1.15;;;22.30;44.60;;;;;;5103253;28;20231;-63
2021/05/21 10:52:59;;;;;;;1.40;1.00;;;22.40;44.60;;;;;;5098957;28;20224;-64
2021/05/21 10:55:41;;;;;;;1.88;0.90;;;22.70;44.30;;;;;;5103881;28;20215;-63
2021/05/21 10:58:07;;;;;;;1.67;0.82;;;22.90;42.90;;;;;;5106431;28;20656;-65
2021/05/21 11:00:34;;;;;;;3.30;1.10;;;23.10;41.90;;;;;;5099433;28;20211;-64
2021/05/21 11:03:01;;;;;;;1.10;1.00;;;23.30;41.50;;;;;;5098767;28;20209;-63
2021/05/21 11:05:31;;;;;;;1.60;1.00;;;23.50;41.60;;;;;;5088870;28;20646;-63
2021/05/21 11:08:00;;;;;;;0.98;0.88;;;23.60;41.40;;;;;;5098397;28;20348;-64
2021/05/21 11:10:41;;;;;;;1.50;1.00;;;23.60;40.90;;;;;;5099693;28;20205;-64
2021/05/21 11:13:11;;;;;;;2.28;1.02;;;23.50;41.50;;;;;;5095338;28;20208;-63
2021/05/21 11:15:39;;;;;;;2.25;1.30;;;23.30;41.60;;;;;;5103748;28;20203;-64
2021/05/21 11:18:13;;;;;;;1.92;1.10;;;23.10;42.10;;;;;;5102080;28;20652;-64
2021/05/21 11:20:56;;;;;;;2.72;1.20;;;23.00;42.40;;;;;;5104446;28;20205;-65
2021/05/21 11:23:24;;;;;;;3.03;2.30;;;22.80;43.10;;;;;;5097137;28;20213;-63
2021/05/21 11:26:24;;;;;;;2.38;1.40;;;22.70;43.30;;;;;;5113100;28;20204;-65
2021/05/21 11:28:54;;;;;;;1.60;1.10;;;22.60;43.60;;;;;;5098849;28;20243;-65
2021/05/21 11:31:23;;;;;;;2.70;1.20;;;22.40;43.70;;;;;;5103123;28;20243;-65
2021/05/21 11:33:51;;;;;;;2.85;1.00;;;22.40;44.70;;;;;;5094630;28;20256;-64
2021/05/21 11:36:19;;;;;;;1.70;0.90;;;22.60;43.60;;;;;;5098755;28;20208;-64
2021/05/21 11:38:46;;;;;;;1.30;1.20;;;22.70;43.60;;;;;;5084887;28;20211;-64
2021/05/21 11:41:13;;;;;;;2.63;1.20;;;22.80;43.50;;;;;;5100401;28;20209;-65
2021/05/21 11:43:40;;;;;;;1.52;1.13;;;22.70;44.10;;;;;;5098996;27;20211;-64
2021/05/21 11:46:13;;;;;;;1.52;1.00;;;22.90;43.80;;;;;;5102713;28;20210;-64
2021/05/21 11:48:42;;;;;;;1.65;1.10;;;23.10;44.20;;;;;;5106418;28;20659;-64
2021/05/21 11:51:14;;;;;;;1.77;1.10;;;23.10;42.50;;;;;;5103718;28;20232;-64
2021/05/21 11:53:48;;;;;;;1.33;1.23;;;23.00;42.80;;;;;;5097578;28;20224;-65
2021/05/21 11:56:26;;;;;;;7.32;1.27;;;22.80;42.00;;;;;;5091332;28;20211;-63
2021/05/21 11:58:52;;;;;;;5.55;1.45;;;22.60;42.10;;;;;;5097565;28;20664;-65
2021/05/21 12:01:18;;;;;;;5.07;1.20;;;22.40;42.50;;;;;;5093470;28;20201;-65
2021/05/21 12:03:46;;;;;;;2.05;1.00;;;22.50;42.80;;;;;;5094326;28;20296;-64
2021/05/21 12:06:13;;;;;;;2.53;1.20;;;22.70;42.80;;;;;;5099634;28;20204;-63
2021/05/21 12:08:39;;;;;;;2.83;0.90;;;22.80;42.10;;;;;;5101412;28;20231;-67
2021/05/21 12:11:07;;;;;;;1.85;1.23;;;22.70;42.10;;;;;;5092487;28;20205;-66
2021/05/21 12:13:33;;;;;;;1.25;1.00;;;22.60;41.80;;;;;;5097202;28;20227;-64
2021/05/21 12:16:13;;;;;;;2.03;0.80;;;22.60;41.90;;;;;;5093108;28;20654;-66
2021/05/21 12:18:39;;;;;;;3.67;0.98;;;22.60;42.00;;;;;;5092174;28;20211;-66
2021/05/21 12:21:07;;;;;;;2.20;1.30;;;22.50;41.80;;;;;;5089639;28;20205;-66
2021/05/21 12:23:38;;;;;;;2.90;1.23;;;22.50;41.90;;;;;;5089626;28;20378;-63
2021/05/21 12:26:04;;;;;;;2.30;1.10;;;22.60;42.70;;;;;;5093448;28;20219;-64
2021/05/21 12:28:32;;;;;;;2.33;1.15;;;22.60;41.60;;;;;;5091807;28;20223;-65
2021/05/21 12:31:02;;;;;;;0.80;0.80;;;22.60;41.70;;;;;;5091946;28;20204;-65
2021/05/21 12:33:31;;;;;;;1.50;0.90;;;22.60;41.50;;;;;;5089782;28;20228;-63
2021/05/21 12:36:03;;;;;;;1.17;0.90;;;22.50;41.60;;;;;;5085028;28;20215;-66
2021/05/21 12:38:30;;;;;;;3.03;0.80;;;22.40;42.20;;;;;;5090881;28;20201;-64
2021/05/21 12:40:58;;;;;;;3.30;0.90;;;22.50;42.70;;;;;;5088241;28;20211;-64
2021/05/21 12:43:26;;;;;;;1.40;0.98;;;22.50;42.10;;;;;;5081906;28;20567;-65
2021/05/21 12:46:06;;;;;;;5.00;1.48;;;22.50;42.60;;;;;;5080690;28;20257;-65
2021/05/21 12:48:35;;;;;;;2.20;1.15;;;22.60;42.50;;;;;;5092373;28;20213;-64